Time,TemperatureF,DewpointF,PressureIn,WindDirection,WindDirectionDegrees,WindSpeedMPH,WindSpeedGustMPH,Humidity,HourlyPrecipIn,Conditions,Clouds,dailyrainin,SolarRadiationWatts/m^2,SoftwareType,DateUTC
2013-06-22 15:22:00,48.0,39.0,-100.00,NE,54,6.0,10.0,72,0.00,,,0.00,292.000000,,2013-06-22 15:22:00,
2013-06-22 15:34:00,48.0,39.0,-100.00,NE,54,6.0,10.0,72,0.00,,,0.00,292.000000,,2013-06-22 15:34:00,
2013-06-22 15:43:00,48.0,39.0,-100.00,NE,54,6.0,10.0,72,0.00,,,0.00,292.000000,,2013-06-22 15:43:00,
2013-06-22 15:53:00,48.0,39.0,-100.00,NE,54,6.0,10.0,72,0.00,,,0.00,292.000000,,2013-06-22 15:53:00,
2013-06-22 16:22:00,56.0,41.0,-100.00,NE,51,3.0,8.0,58,0.00,,,0.00,484.000000,,2013-06-22 16:22:00,
2013-06-22 16:34:00,56.0,41.0,-100.00,NE,51,3.0,8.0,58,0.00,,,0.00,484.000000,,2013-06-22 16:34:00,
2013-06-22 16:43:00,56.0,41.0,-100.00,NE,51,3.0,8.0,58,0.00,,,0.00,484.000000,,2013-06-22 16:43:00,
2013-06-22 16:52:00,56.0,41.0,-100.00,NE,51,3.0,8.0,58,0.00,,,0.00,484.000000,,2013-06-22 16:52:00,
2013-06-22 17:43:00,60.0,43.0,-100.00,SW,224,6.0,10.0,53,0.00,,,0.00,666.000000,,2013-06-22 17:43:00,
2013-06-22 17:52:00,60.0,43.0,-100.00,SW,224,6.0,10.0,53,0.00,,,0.00,666.000000,,2013-06-22 17:52:00,
2013-06-22 18:34:00,62.0,40.0,-100.00,WNW,295,7.0,11.0,45,0.00,,,0.00,825.000000,,2013-06-22 18:34:00,
2013-06-22 18:43:00,62.0,40.0,-100.00,WNW,295,7.0,11.0,45,0.00,,,0.00,825.000000,,2013-06-22 18:43:00,
2013-06-22 18:52:00,62.0,40.0,-100.00,WNW,295,7.0,11.0,45,0.00,,,0.00,825.000000,,2013-06-22 18:52:00,
2013-06-22 19:33:00,65.0,39.0,-100.00,WSW,255,6.0,12.0,39,0.00,,,0.00,947.000000,,2013-06-22 19:33:00,
2013-06-22 19:42:00,65.0,39.0,-100.00,WSW,255,6.0,12.0,39,0.00,,,0.00,947.000000,,2013-06-22 19:42:00,
2013-06-22 19:52:00,65.0,39.0,-100.00,WSW,255,6.0,12.0,39,0.00,,,0.00,947.000000,,2013-06-22 19:52:00,
2013-06-22 20:22:00,68.0,41.0,-100.00,WNW,288,6.0,11.0,38,0.00,,,0.00,1003.000000,,2013-06-22 20:22:00,
2013-06-22 20:33:00,68.0,41.0,-100.00,WNW,288,6.0,11.0,38,0.00,,,0.00,1003.000000,,2013-06-22 20:33:00,
2013-06-22 20:43:00,68.0,41.0,-100.00,WNW,288,6.0,11.0,38,0.00,,,0.00,1003.000000,,2013-06-22 20:43:00,
2013-06-22 20:53:00,68.0,41.0,-100.00,WNW,288,6.0,11.0,38,0.00,,,0.00,1003.000000,,2013-06-22 20:53:00,
2013-06-22 21:22:00,71.0,42.0,-100.00,West,274,7.0,13.0,35,0.00,,,0.00,1019.000000,,2013-06-22 21:22:00,
2013-06-22 21:33:00,71.0,42.0,-100.00,West,274,7.0,13.0,35,0.00,,,0.00,1019.000000,,2013-06-22 21:33:00,
2013-06-22 21:43:00,71.0,42.0,-100.00,West,274,7.0,13.0,35,0.00,,,0.00,1019.000000,,2013-06-22 21:43:00,
2013-06-22 21:53:00,71.0,42.0,-100.00,West,274,7.0,13.0,35,0.00,,,0.00,1019.000000,,2013-06-22 21:53:00,
2013-06-22 22:23:00,73.0,43.0,-100.00,SW,228,7.0,12.0,34,0.00,,,0.00,974.000000,,2013-06-22 22:23:00,
2013-06-22 22:33:00,73.0,43.0,-100.00,SW,228,7.0,12.0,34,0.00,,,0.00,974.000000,,2013-06-22 22:33:00,
2013-06-22 22:43:00,73.0,43.0,-100.00,SW,228,7.0,12.0,34,0.00,,,0.00,974.000000,,2013-06-22 22:43:00,
2013-06-22 22:52:00,73.0,43.0,-100.00,SW,228,7.0,12.0,34,0.00,,,0.00,974.000000,,2013-06-22 22:52:00,
2013-06-22 23:43:00,74.0,41.0,-100.00,WSW,253,7.0,14.0,31,0.00,,,0.00,901.000000,,2013-06-22 23:43:00,
2013-06-22 23:52:00,74.0,41.0,-100.00,WSW,253,7.0,14.0,31,0.00,,,0.00,901.000000,,2013-06-22 23:52:00,